Time;durP1;ratioP1;P1;durP2;ratioP2;P2;SDS_P1;SDS_P2;PMS_P1;PMS_P2;Temp;Humidity;BMP_temperature;BMP_pressure;BME280_temperature;BME280_humidity;BME280_pressure;Samples;Min_cycle;Max_cycle;Signal;HPM_P1;HPM_P2
2021/04/06 00:00:39;;;;;;;7.97;3.70;;;1.90;99.90;;;;;;4972086;28;21012;-73
2021/04/06 00:03:08;;;;;;;5.63;3.50;;;2.00;99.90;;;;;;4980610;28;20936;-74
2021/04/06 00:05:36;;;;;;;7.20;4.00;;;2.00;99.90;;;;;;4990014;28;20527;-74
2021/04/06 00:08:03;;;;;;;8.10;4.60;;;2.00;99.90;;;;;;4982993;28;20509;-74
2021/04/06 00:10:36;;;;;;;4.57;3.47;;;1.90;99.90;;;;;;4989579;28;20476;-74
2021/04/06 00:13:03;;;;;;;6.70;4.30;;;2.00;99.90;;;;;;4978681;28;20822;-74
2021/04/06 00:15:31;;;;;;;11.13;3.90;;;2.10;99.90;;;;;;4983642;28;20436;-74
2021/04/06 00:18:00;;;;;;;5.77;3.23;;;2.00;99.90;;;;;;4975580;28;20432;-73
2021/04/06 00:20:28;;;;;;;6.93;4.53;;;2.10;99.90;;;;;;4975757;28;20461;-74
2021/04/06 00:22:55;;;;;;;10.00;4.10;;;2.00;99.90;;;;;;5010384;28;20432;-73
2021/04/06 00:25:26;;;;;;;13.13;3.30;;;2.00;99.90;;;;;;4979406;28;20435;-75
2021/04/06 00:27:52;;;;;;;7.80;3.40;;;2.00;99.90;;;;;;4977836;28;20455;-75
2021/04/06 00:30:25;;;;;;;10.83;4.33;;;2.00;99.90;;;;;;4977300;28;20448;-75
2021/04/06 00:33:17;;;;;;;6.13;3.10;;;2.00;99.90;;;;;;4974784;28;20424;-74
2021/04/06 00:35:51;;;;;;;12.53;4.30;;;2.20;99.90;;;;;;4962036;28;20421;-74
2021/04/06 00:38:18;;;;;;;8.23;3.43;;;2.10;99.90;;;;;;4972936;28;20830;-74
2021/04/06 00:40:47;;;;;;;6.50;2.93;;;2.30;99.90;;;;;;4972638;28;20447;-74
2021/04/06 00:43:15;;;;;;;7.83;3.70;;;2.20;99.90;;;;;;4976059;28;20464;-74
2021/04/06 00:45:43;;;;;;;6.40;3.97;;;2.30;99.90;;;;;;4976588;28;20869;-74
2021/04/06 00:48:17;;;;;;;7.13;3.10;;;2.30;99.90;;;;;;4976603;28;20509;-74
2021/04/06 00:51:14;;;;;;;13.73;5.37;;;2.40;99.90;;;;;;4968836;28;20444;-75
2021/04/06 00:54:00;;;;;;;6.10;3.23;;;2.50;99.90;;;;;;4976358;28;20433;-74
2021/04/06 00:56:30;;;;;;;10.50;3.07;;;2.50;99.90;;;;;;4976535;28;20439;-74
2021/04/06 00:58:59;;;;;;;8.37;2.63;;;2.50;99.90;;;;;;5017686;28;20469;-74
2021/04/06 01:01:31;;;;;;;8.90;2.80;;;2.60;99.90;;;;;;4979127;28;20509;-74
2021/04/06 01:03:58;;;;;;;11.37;3.00;;;2.60;99.90;;;;;;4979906;28;20463;-74
2021/04/06 01:06:24;;;;;;;11.50;3.60;;;2.70;99.90;;;;;;4978738;28;20431;-74
2021/04/06 01:08:52;;;;;;;12.03;3.57;;;2.70;99.90;;;;;;4995414;28;20462;-75
2021/04/06 01:11:18;;;;;;;8.23;3.40;;;2.70;99.90;;;;;;4991791;28;20449;-74
2021/04/06 01:13:45;;;;;;;8.30;3.00;;;2.70;99.90;;;;;;4979332;28;20565;-74
2021/04/06 01:16:11;;;;;;;10.20;4.33;;;2.70;99.90;;;;;;4984551;28;20467;-74
2021/04/06 01:18:36;;;;;;;8.37;3.07;;;2.70;99.90;;;;;;4975880;28;20455;-74
2021/04/06 01:21:10;;;;;;;7.23;3.13;;;2.80;99.90;;;;;;4975435;28;20708;-74
2021/04/06 01:23:36;;;;;;;8.20;2.60;;;2.70;99.90;;;;;;4989912;28;20632;-74
2021/04/06 01:26:02;;;;;;;7.00;2.93;;;2.70;99.90;;;;;;4975999;28;20428;-73
2021/04/06 01:28:31;;;;;;;7.37;2.70;;;2.70;99.90;;;;;;4975882;28;20802;-74
2021/04/06 01:30:59;;;;;;;6.23;2.87;;;2.80;99.90;;;;;;4976990;28;20443;-74
2021/04/06 01:33:30;;;;;;;8.60;2.90;;;2.80;99.90;;;;;;4983547;28;20432;-74
2021/04/06 01:35:58;;;;;;;4.70;2.40;;;2.70;99.90;;;;;;4986019;28;20441;-74
2021/04/06 01:38:26;;;;;;;15.97;3.37;;;2.70;99.90;;;;;;4984761;28;20450;-74
2021/04/06 01:40:57;;;;;;;8.00;2.60;;;2.70;99.90;;;;;;4992394;28;20463;-74
2021/04/06 01:43:26;;;;;;;6.90;4.03;;;2.70;99.90;;;;;;4985831;28;20455;-74
2021/04/06 01:46:14;;;;;;;7.43;3.13;;;2.70;99.90;;;;;;5016747;28;20436;-74
2021/04/06 01:48:40;;;;;;;7.70;2.83;;;2.70;99.90;;;;;;4984650;28;20470;-74
2021/04/06 01:51:06;;;;;;;6.37;3.40;;;2.70;99.90;;;;;;4990258;28;20977;-75
2021/04/06 01:53:33;;;;;;;8.33;2.17;;;2.70;99.90;;;;;;4977414;28;20430;-74
2021/04/06 01:56:06;;;;;;;8.50;2.57;;;2.70;99.90;;;;;;4983090;28;20193;-74
2021/04/06 01:58:34;;;;;;;7.53;3.37;;;2.60;99.90;;;;;;4983335;28;20433;-74
2021/04/06 02:01:21;;;;;;;8.00;3.33;;;2.60;99.90;;;;;;4986184;28;20855;-74
2021/04/06 02:03:51;;;;;;;9.30;3.47;;;2.60;99.90;;;;;;4976659;28;20462;-71
2021/04/06 02:06:17;;;;;;;14.47;3.47;;;2.60;99.90;;;;;;4982789;28;20431;-71
2021/04/06 02:08:50;;;;;;;9.90;3.43;;;2.60;99.90;;;;;;4992070;28;20920;-71
2021/04/06 02:11:26;;;;;;;10.53;3.73;;;2.50;99.90;;;;;;4986099;28;20846;-71
2021/04/06 02:13:52;;;;;;;10.50;3.20;;;2.50;99.90;;;;;;4971099;28;20435;-71
2021/04/06 02:16:18;;;;;;;18.17;3.83;;;2.50;99.90;;;;;;4989633;28;20925;-71
2021/04/06 02:18:50;;;;;;;10.10;2.80;;;2.60;99.90;;;;;;4993888;28;20709;-71
2021/04/06 02:21:15;;;;;;;11.20;3.17;;;2.60;99.90;;;;;;4987043;28;20455;-71
2021/04/06 02:23:43;;;;;;;7.37;2.70;;;2.60;99.90;;;;;;4982872;28;20443;-71
2021/04/06 02:26:12;;;;;;;18.80;3.10;;;2.60;99.90;;;;;;4978448;28;20266;-72
2021/04/06 02:28:38;;;;;;;10.20;3.30;;;2.60;99.90;;;;;;4974926;28;20463;-72
2021/04/06 02:31:04;;;;;;;6.07;3.00;;;2.70;99.90;;;;;;4983559;28;20494;-71
2021/04/06 02:33:32;;;;;;;7.40;3.23;;;2.70;99.90;;;;;;4980319;28;20260;-71
2021/04/06 02:36:01;;;;;;;8.27;3.17;;;2.60;99.90;;;;;;4979539;28;20425;-72
2021/04/06 02:38:29;;;;;;;8.40;2.90;;;2.60;99.90;;;;;;4974730;28;20429;-72
2021/04/06 02:41:15;;;;;;;13.57;4.10;;;2.60;99.90;;;;;;4995648;28;20802;-72
2021/04/06 02:43:52;;;;;;;11.33;4.07;;;2.60;99.90;;;;;;4987934;28;21021;-72
2021/04/06 02:46:28;;;;;;;13.17;4.60;;;2.50;99.90;;;;;;4973969;28;20431;-71
2021/04/06 02:48:56;;;;;;;8.23;3.13;;;2.50;99.90;;;;;;4974420;28;20491;-71
2021/04/06 02:51:22;;;;;;;10.23;2.83;;;2.50;99.90;;;;;;4980153;28;20448;-71
2021/04/06 02:53:52;;;;;;;7.60;4.00;;;2.50;99.90;;;;;;4980838;28;20438;-72
2021/04/06 02:56:31;;;;;;;13.00;4.07;;;2.50;99.90;;;;;;4991822;28;21052;-72
2021/04/06 02:59:15;;;;;;;10.77;4.13;;;2.50;99.90;;;;;;4987045;28;20424;-72
2021/04/06 03:01:42;;;;;;;14.63;3.93;;;2.40;99.90;;;;;;4977191;28;20789;-72
2021/04/06 03:04:22;;;;;;;8.07;4.03;;;2.40;99.90;;;;;;4974377;28;20429;-71
2021/04/06 03:06:58;;;;;;;16.40;3.87;;;2.40;99.90;;;;;;4988198;28;20497;-71
2021/04/06 03:09:25;;;;;;;11.33;3.50;;;2.40;99.90;;;;;;4985137;28;20467;-71
2021/04/06 03:11:53;;;;;;;12.37;4.57;;;2.40;99.90;;;;;;4989149;28;20418;-71
2021/04/06 03:14:24;;;;;;;17.60;4.00;;;2.30;99.90;;;;;;4981068;28;20479;-72
2021/04/06 03:16:51;;;;;;;4.80;3.43;;;2.40;99.90;;;;;;4988826;28;20431;-72
2021/04/06 03:19:17;;;;;;;10.47;4.20;;;2.30;99.90;;;;;;4975697;28;20434;-72
2021/04/06 03:21:43;;;;;;;12.43;4.60;;;2.30;99.90;;;;;;4973385;28;20499;-73
2021/04/06 03:24:09;;;;;;;15.00;6.10;;;2.30;99.90;;;;;;4988253;28;20436;-73
2021/04/06 03:26:35;;;;;;;10.07;5.83;;;2.40;99.90;;;;;;5006580;28;20267;-74
2021/04/06 03:29:02;;;;;;;6.40;4.33;;;2.40;99.90;;;;;;4972690;28;20457;-73
2021/04/06 03:31:31;;;;;;;5.67;3.63;;;2.40;99.90;;;;;;4971563;28;20953;-73
2021/04/06 03:33:59;;;;;;;8.50;4.20;;;2.30;99.90;;;;;;4977181;28;20459;-73
2021/04/06 03:36:29;;;;;;;12.13;4.70;;;2.40;99.90;;;;;;4981622;28;20422;-73
2021/04/06 03:38:57;;;;;;;9.40;4.17;;;2.30;99.90;;;;;;4986135;28;20419;-73
2021/04/06 03:41:25;;;;;;;7.77;4.57;;;2.40;99.90;;;;;;4981484;28;20927;-73
2021/04/06 03:43:52;;;;;;;14.07;4.63;;;2.40;99.90;;;;;;4973431;28;20934;-72
2021/04/06 03:46:24;;;;;;;13.43;4.57;;;2.30;99.90;;;;;;4975712;28;20949;-73
2021/04/06 03:48:51;;;;;;;8.33;4.43;;;2.30;99.90;;;;;;4973312;28;20522;-73
2021/04/06 03:51:29;;;;;;;6.33;5.33;;;2.30;99.90;;;;;;4977806;28;20968;-73
2021/04/06 03:53:56;;;;;;;12.60;5.37;;;2.20;99.90;;;;;;4991234;28;20868;-73
2021/04/06 03:56:30;;;;;;;12.50;4.90;;;2.20;99.90;;;;;;4974598;28;20946;-73
2021/04/06 03:58:58;;;;;;;11.23;5.67;;;2.10;99.90;;;;;;4973323;28;20424;-72
2021/04/06 04:01:25;;;;;;;14.40;4.50;;;2.00;99.90;;;;;;4986119;28;20534;-72
2021/04/06 04:03:55;;;;;;;19.13;5.20;;;2.00;99.90;;;;;;4982968;28;20793;-73
2021/04/06 04:06:28;;;;;;;13.60;5.37;;;2.00;99.90;;;;;;4983495;28;20432;-73
2021/04/06 04:08:54;;;;;;;9.93;6.27;;;1.90;99.90;;;;;;4976835;28;20468;-73
2021/04/06 04:11:22;;;;;;;12.17;4.67;;;2.00;99.90;;;;;;4987519;28;20529;-73
2021/04/06 04:13:47;;;;;;;13.03;4.97;;;1.90;99.90;;;;;;4991217;28;20826;-73
2021/04/06 04:16:13;;;;;;;13.80;5.17;;;1.90;99.90;;;;;;4982970;28;20491;-73
2021/04/06 04:18:39;;;;;;;4.53;4.07;;;2.00;99.90;;;;;;4979558;28;20180;-73
2021/04/06 04:21:05;;;;;;;12.70;6.13;;;2.00;99.90;;;;;;4985356;28;20447;-73
2021/04/06 04:23:31;;;;;;;13.30;5.57;;;2.00;99.90;;;;;;4987732;28;20184;-73
2021/04/06 04:25:57;;;;;;;12.20;5.43;;;2.00;99.90;;;;;;4993030;28;20954;-73
2021/04/06 04:28:23;;;;;;;9.23;5.47;;;1.90;99.90;;;;;;4992539;28;20455;-73
2021/04/06 04:30:51;;;;;;;14.63;6.43;;;1.90;99.90;;;;;;4983994;28;20239;-72
2021/04/06 04:33:16;;;;;;;10.67;4.57;;;2.00;99.90;;;;;;4982212;28;20176;-73
2021/04/06 04:35:43;;;;;;;13.03;4.33;;;1.90;99.90;;;;;;4993795;28;20418;-73
2021/04/06 04:38:09;;;;;;;8.00;4.63;;;2.00;99.90;;;;;;4993485;28;20274;-73
2021/04/06 04:40:40;;;;;;;9.20;4.00;;;1.80;99.90;;;;;;4987707;28;20504;-73
2021/04/06 04:43:05;;;;;;;10.13;3.60;;;1.90;99.90;;;;;;4993936;28;20460;-73
2021/04/06 04:45:31;;;;;;;15.03;3.93;;;1.90;99.90;;;;;;4994183;28;20516;-73
2021/04/06 04:47:56;;;;;;;9.77;2.53;;;1.70;99.90;;;;;;4990031;28;20195;-73
2021/04/06 04:50:22;;;;;;;11.63;2.70;;;1.70;99.90;;;;;;4987223;28;20193;-73
2021/04/06 04:52:50;;;;;;;8.33;2.70;;;1.70;99.90;;;;;;4992335;28;20188;-73
2021/04/06 04:55:18;;;;;;;11.27;2.90;;;1.70;99.90;;;;;;5003415;28;20464;-73
2021/04/06 04:57:44;;;;;;;15.60;4.20;;;1.70;99.90;;;;;;4992360;28;20436;-72
2021/04/06 05:00:11;;;;;;;7.43;2.23;;;1.60;99.90;;;;;;4988118;28;20802;-73
2021/04/06 05:02:36;;;;;;;10.70;3.37;;;1.60;99.90;;;;;;4994510;28;20443;-73
2021/04/06 05:05:03;;;;;;;7.10;3.27;;;1.70;99.90;;;;;;4985020;28;20484;-73
2021/04/06 05:07:29;;;;;;;7.87;3.30;;;1.60;99.90;;;;;;4983278;28;20647;-73
2021/04/06 05:09:54;;;;;;;8.60;2.80;;;1.70;99.90;;;;;;4981782;28;20502;-73
2021/04/06 05:12:20;;;;;;;10.53;2.23;;;1.70;99.90;;;;;;4987360;28;20244;-73
2021/04/06 05:14:46;;;;;;;9.90;3.10;;;1.70;99.90;;;;;;4986109;28;20223;-73
2021/04/06 05:17:13;;;;;;;7.63;1.77;;;1.70;99.90;;;;;;4994407;28;20200;-73
2021/04/06 05:19:39;;;;;;;8.63;2.33;;;1.80;99.90;;;;;;5023430;28;20491;-73
2021/04/06 05:22:05;;;;;;;10.50;3.20;;;1.80;99.90;;;;;;4995885;28;20469;-72
2021/04/06 05:24:30;;;;;;;6.67;3.17;;;1.80;99.90;;;;;;4988196;28;20180;-73
2021/04/06 05:26:56;;;;;;;8.80;3.10;;;1.80;99.90;;;;;;4983160;28;20437;-72
2021/04/06 05:29:21;;;;;;;7.90;3.00;;;1.80;99.90;;;;;;4989767;28;20336;-73
2021/04/06 05:31:47;;;;;;;7.10;3.20;;;1.80;99.90;;;;;;4994820;28;20846;-74
2021/04/06 05:34:12;;;;;;;6.67;2.60;;;1.90;99.90;;;;;;4992067;28;20177;-73
2021/04/06 05:36:38;;;;;;;8.60;3.43;;;2.00;99.90;;;;;;4987001;28;20748;-73
2021/04/06 05:39:04;;;;;;;6.57;3.63;;;2.00;99.90;;;;;;4988192;28;20197;-73
2021/04/06 05:41:29;;;;;;;7.87;2.70;;;2.00;99.90;;;;;;4992353;28;20212;-73
2021/04/06 05:44:04;;;;;;;9.00;3.53;;;2.00;99.90;;;;;;4988523;28;20188;-73
2021/04/06 05:46:31;;;;;;;11.03;2.60;;;2.10;99.90;;;;;;4979632;28;20184;-74
2021/04/06 05:49:01;;;;;;;9.30;3.67;;;2.20;99.90;;;;;;4976203;28;20963;-73
2021/04/06 05:51:27;;;;;;;8.50;3.40;;;2.40;99.90;;;;;;4975365;28;20477;-73
2021/04/06 05:53:53;;;;;;;10.27;3.40;;;2.60;99.90;;;;;;4979421;28;20512;-73
2021/04/06 05:56:19;;;;;;;12.93;3.27;;;2.70;99.90;;;;;;4989073;28;20478;-73
2021/04/06 05:58:45;;;;;;;4.87;3.00;;;2.80;99.90;;;;;;4990530;28;20967;-74
2021/04/06 06:01:11;;;;;;;8.80;3.70;;;2.80;99.90;;;;;;4988744;28;20666;-73
2021/04/06 06:03:37;;;;;;;7.90;2.43;;;2.70;99.90;;;;;;4985859;28;20175;-73
2021/04/06 06:06:03;;;;;;;6.33;3.13;;;2.60;99.90;;;;;;4977131;28;20440;-73
2021/04/06 06:08:30;;;;;;;11.70;3.93;;;2.60;99.90;;;;;;4976440;28;20804;-73
2021/04/06 06:11:05;;;;;;;14.20;3.27;;;2.60;99.90;;;;;;4974481;28;20447;-74
2021/04/06 06:13:34;;;;;;;5.63;2.77;;;2.50;99.90;;;;;;4974832;28;20427;-73
2021/04/06 06:16:16;;;;;;;4.43;2.77;;;2.60;99.90;;;;;;4973633;28;20513;-73
2021/04/06 06:18:57;;;;;;;5.03;2.07;;;2.60;99.90;;;;;;5006270;28;20925;-73
2021/04/06 06:21:37;;;;;;;10.73;2.73;;;2.60;99.90;;;;;;4973205;28;20459;-73
2021/04/06 06:24:04;;;;;;;6.60;2.47;;;2.60;99.90;;;;;;4978494;28;20833;-73
2021/04/06 06:26:29;;;;;;;5.27;2.10;;;2.60;99.90;;;;;;4974664;28;20487;-73
2021/04/06 06:29:24;;;;;;;4.73;2.13;;;2.70;99.90;;;;;;4974643;28;20836;-73
2021/04/06 06:31:53;;;;;;;16.33;2.83;;;2.70;99.90;;;;;;4972422;28;20523;-73
2021/04/06 06:34:29;;;;;;;11.23;2.30;;;2.80;99.90;;;;;;4978332;28;20422;-73
2021/04/06 06:37:16;;;;;;;5.60;2.03;;;2.80;99.90;;;;;;4980294;28;20432;-73
2021/04/06 06:39:54;;;;;;;9.47;2.90;;;2.90;99.90;;;;;;4983103;28;20467;-74
2021/04/06 06:42:21;;;;;;;7.37;2.70;;;2.80;99.90;;;;;;4997384;28;20935;-74
2021/04/06 06:44:47;;;;;;;3.40;2.30;;;2.70;99.90;;;;;;4977913;28;20531;-73
2021/04/06 06:47:20;;;;;;;7.17;3.00;;;2.70;99.90;;;;;;4988927;28;20880;-73
2021/04/06 06:49:45;;;;;;;6.10;3.57;;;2.80;99.90;;;;;;4987558;28;20209;-74
2021/04/06 06:52:20;;;;;;;12.10;3.10;;;2.90;99.90;;;;;;4987356;28;20431;-73
2021/04/06 06:54:46;;;;;;;9.60;4.50;;;2.90;99.90;;;;;;4990498;28;20446;-73
2021/04/06 06:57:14;;;;;;;6.23;3.70;;;3.10;99.90;;;;;;4984737;28;20444;-74
2021/04/06 06:59:43;;;;;;;5.60;3.63;;;3.20;99.90;;;;;;4986723;28;20563;-73
2021/04/06 07:02:21;;;;;;;5.87;3.33;;;3.60;99.90;;;;;;4987581;28;20435;-74
2021/04/06 07:04:47;;;;;;;11.70;3.97;;;4.00;99.90;;;;;;4984865;28;20416;-74
2021/04/06 07:07:13;;;;;;;8.70;4.30;;;4.20;99.90;;;;;;4986083;28;20438;-74
2021/04/06 07:09:40;;;;;;;10.30;3.93;;;4.10;99.90;;;;;;4973255;28;20527;-74
2021/04/06 07:12:07;;;;;;;8.37;3.40;;;4.20;99.90;;;;;;4979330;28;20257;-74
2021/04/06 07:14:33;;;;;;;10.57;3.80;;;4.20;99.90;;;;;;4972126;28;20421;-74
2021/04/06 07:17:03;;;;;;;6.23;2.80;;;4.70;99.90;;;;;;4973545;28;20424;-74
2021/04/06 07:19:34;;;;;;;6.97;3.10;;;5.10;99.90;;;;;;4973484;28;20417;-74
2021/04/06 07:22:02;;;;;;;6.07;2.43;;;5.40;99.90;;;;;;4988689;28;20445;-74
2021/04/06 07:24:31;;;;;;;5.93;2.63;;;5.80;99.90;;;;;;4973852;28;20492;-75
2021/04/06 07:26:57;;;;;;;7.47;2.70;;;6.10;99.90;;;;;;4986852;28;20435;-74
2021/04/06 07:29:23;;;;;;;6.70;2.37;;;6.30;99.90;;;;;;4977689;28;20459;-74
2021/04/06 07:31:49;;;;;;;5.70;2.50;;;6.00;99.90;;;;;;4980264;28;20652;-74
2021/04/06 07:34:17;;;;;;;15.73;2.90;;;5.80;99.90;;;;;;4978243;28;20518;-74
2021/04/06 07:36:44;;;;;;;4.93;2.27;;;5.50;99.90;;;;;;4977661;28;20464;-75
2021/04/06 07:39:12;;;;;;;7.03;2.40;;;5.90;99.90;;;;;;4988525;28;20770;-75
2021/04/06 07:41:45;;;;;;;9.03;2.50;;;6.60;99.90;;;;;;4983469;28;20541;-75
2021/04/06 07:44:13;;;;;;;7.40;2.27;;;6.80;99.90;;;;;;4973449;28;20777;-75
2021/04/06 07:46:47;;;;;;;10.40;2.70;;;6.80;99.90;;;;;;4973527;28;20970;-75
2021/04/06 07:49:21;;;;;;;3.97;2.23;;;6.60;99.90;;;;;;4970000;28;20461;-74
2021/04/06 07:51:46;;;;;;;6.80;1.70;;;6.20;99.90;;;;;;4972635;28;20413;-75
2021/04/06 07:54:17;;;;;;;11.10;2.37;;;6.10;99.90;;;;;;4973195;28;20431;-75
2021/04/06 07:56:42;;;;;;;5.23;2.53;;;6.30;99.90;;;;;;4973251;28;20177;-76
2021/04/06 07:59:09;;;;;;;4.10;2.57;;;6.50;99.90;;;;;;4973156;28;20475;-75
2021/04/06 08:01:34;;;;;;;8.03;3.60;;;7.00;99.90;;;;;;4973046;28;20201;-75
2021/04/06 08:04:02;;;;;;;4.90;2.60;;;6.90;99.90;;;;;;4973045;28;20511;-75
2021/04/06 08:06:48;;;;;;;6.70;2.50;;;6.60;99.90;;;;;;4963650;28;20184;-74
2021/04/06 08:09:33;;;;;;;5.30;2.40;;;6.50;99.90;;;;;;4972701;28;20448;-74
2021/04/06 08:12:12;;;;;;;7.53;4.70;;;6.50;99.90;;;;;;4972897;28;20420;-75
2021/04/06 08:14:47;;;;;;;4.87;2.70;;;6.60;99.90;;;;;;4983198;28;20432;-75
2021/04/06 08:17:28;;;;;;;4.50;2.60;;;7.00;99.90;;;;;;4986928;28;21834;-75
2021/04/06 08:20:18;;;;;;;8.97;2.77;;;7.20;99.90;;;;;;4972482;28;20444;-75
2021/04/06 08:22:50;;;;;;;8.70;2.97;;;7.00;99.90;;;;;;5003912;28;20950;-74
2021/04/06 08:25:19;;;;;;;7.77;2.90;;;7.50;99.90;;;;;;4972842;28;20432;-75
2021/04/06 08:27:52;;;;;;;4.60;2.63;;;7.80;99.90;;;;;;4972587;28;20429;-75
2021/04/06 08:30:21;;;;;;;5.00;2.13;;;7.70;99.90;;;;;;4972421;28;20443;-75
2021/04/06 08:32:56;;;;;;;7.03;2.33;;;8.50;99.90;;;;;;4972312;28;20432;-75
2021/04/06 08:35:44;;;;;;;7.93;2.50;;;9.30;99.90;;;;;;5004221;28;20452;-76
2021/04/06 08:38:33;;;;;;;5.33;2.07;;;9.80;99.90;;;;;;4971183;28;20906;-76
2021/04/06 08:41:10;;;;;;;2.67;2.00;;;10.40;99.90;;;;;;4972223;28;20781;-75
2021/04/06 08:43:46;;;;;;;3.50;1.90;;;10.40;99.90;;;;;;4972830;28;20474;-76
2021/04/06 08:46:15;;;;;;;4.23;2.13;;;9.50;99.90;;;;;;4972771;28;20922;-75
2021/04/06 08:48:50;;;;;;;6.70;2.53;;;9.10;99.90;;;;;;4972701;28;20448;-75
2021/04/06 08:51:23;;;;;;;4.30;2.10;;;8.80;99.90;;;;;;4972555;28;20463;-74
2021/04/06 08:53:51;;;;;;;6.70;3.30;;;8.10;99.90;;;;;;4963600;28;20449;-75
2021/04/06 08:56:29;;;;;;;4.57;1.93;;;7.50;99.90;;;;;;4972653;28;21039;-75
2021/04/06 08:59:34;;;;;;;5.80;2.40;;;7.80;99.90;;;;;;4972465;28;20415;-75
2021/04/06 09:02:11;;;;;;;3.90;2.57;;;7.50;99.90;;;;;;4972511;28;20421;-75
2021/04/06 09:04:39;;;;;;;6.17;2.27;;;7.70;99.90;;;;;;4975065;28;20416;-75
2021/04/06 09:07:22;;;;;;;5.03;2.97;;;7.80;99.90;;;;;;4976189;28;20432;-75
2021/04/06 09:09:51;;;;;;;3.47;2.60;;;7.40;99.90;;;;;;4980156;28;20459;-76
2021/04/06 09:12:17;;;;;;;4.43;2.23;;;7.60;99.90;;;;;;4978947;28;20420;-75
2021/04/06 09:14:43;;;;;;;5.27;1.83;;;7.60;99.90;;;;;;4999094;28;20426;-75
2021/04/06 09:17:09;;;;;;;4.50;2.70;;;7.30;99.90;;;;;;4983908;28;20238;-77
2021/04/06 09:19:36;;;;;;;7.53;2.27;;;7.30;99.90;;;;;;4995570;28;20425;-78
2021/04/06 09:22:05;;;;;;;7.60;3.10;;;7.50;99.90;;;;;;4983176;28;20271;-76
2021/04/06 09:24:32;;;;;;;4.43;2.53;;;7.50;99.90;;;;;;4982432;28;20427;-76
2021/04/06 09:26:58;;;;;;;3.23;2.33;;;7.10;99.90;;;;;;4976529;28;20425;-76
2021/04/06 09:29:30;;;;;;;7.83;2.67;;;6.50;99.90;;;;;;4980840;28;20448;-76
2021/04/06 09:32:00;;;;;;;5.27;2.80;;;6.40;99.90;;;;;;4994062;28;20428;-75
2021/04/06 09:34:28;;;;;;;3.47;2.37;;;7.00;99.90;;;;;;4978017;28;20444;-76
2021/04/06 09:37:06;;;;;;;4.67;1.77;;;8.30;99.90;;;;;;4982142;28;20433;-75
2021/04/06 09:39:32;;;;;;;5.50;2.47;;;9.20;99.90;;;;;;4966059;28;20588;-74
2021/04/06 09:42:00;;;;;;;5.43;2.10;;;9.60;99.90;;;;;;4974155;28;20460;-75
2021/04/06 09:44:28;;;;;;;5.10;2.20;;;9.90;99.90;;;;;;4985049;28;20432;-75
2021/04/06 09:46:56;;;;;;;2.93;2.10;;;10.30;99.90;;;;;;4986559;28;20519;-75
2021/04/06 09:49:22;;;;;;;2.63;2.33;;;9.90;99.90;;;;;;4975915;28;20460;-76
2021/04/06 09:51:53;;;;;;;3.90;2.33;;;10.30;99.90;;;;;;4987422;28;20435;-75
2021/04/06 09:54:27;;;;;;;2.50;1.87;;;11.20;99.90;;;;;;4989873;28;20428;-75
2021/04/06 09:56:55;;;;;;;4.03;1.90;;;10.30;99.90;;;;;;4984123;28;20487;-75
2021/04/06 09:59:21;;;;;;;5.67;2.10;;;10.80;99.90;;;;;;4992399;28;20466;-74
2021/04/06 10:01:54;;;;;;;5.50;2.60;;;10.50;99.90;;;;;;4995852;28;20432;-75
2021/04/06 10:04:42;;;;;;;4.80;2.20;;;10.40;99.90;;;;;;4988617;28;20428;-75
2021/04/06 10:07:14;;;;;;;4.40;2.57;;;9.20;99.90;;;;;;4989871;28;20446;-76
2021/04/06 10:10:16;;;;;;;3.90;1.90;;;9.70;99.90;;;;;;5024213;28;20471;-76
2021/04/06 10:12:42;;;;;;;8.37;2.17;;;9.80;99.90;;;;;;4986506;28;20432;-75
2021/04/06 10:15:08;;;;;;;3.60;1.80;;;9.70;99.90;;;;;;4988447;28;20426;-75
2021/04/06 10:17:38;;;;;;;3.97;2.53;;;9.00;99.90;;;;;;4988458;28;20432;-75
2021/04/06 10:20:13;;;;;;;4.10;2.30;;;9.20;99.90;;;;;;4980721;28;20444;-75
2021/04/06 10:22:56;;;;;;;7.60;2.90;;;8.20;99.90;;;;;;4989275;28;20423;-75
2021/04/06 10:25:52;;;;;;;3.93;2.00;;;8.00;99.90;;;;;;4976604;28;20440;-76
2021/04/06 10:28:27;;;;;;;3.53;1.43;;;7.50;99.90;;;;;;4987558;28;20456;-74
2021/04/06 10:30:59;;;;;;;4.03;1.10;;;6.80;99.90;;;;;;4987368;28;20522;-76
2021/04/06 10:33:29;;;;;;;5.57;1.00;;;6.30;99.90;;;;;;4985206;28;20421;-76
2021/04/06 10:35:58;;;;;;;3.87;1.30;;;6.40;99.90;;;;;;4979695;28;20453;-76
2021/04/06 10:38:29;;;;;;;3.03;1.20;;;6.30;99.90;;;;;;4988358;28;20432;-75
2021/04/06 10:41:08;;;;;;;2.47;1.17;;;6.00;99.90;;;;;;4980496;28;20775;-75
2021/04/06 10:43:34;;;;;;;4.43;1.67;;;5.80;99.90;;;;;;4978360;28;20437;-75
2021/04/06 10:46:06;;;;;;;2.47;2.10;;;5.60;99.90;;;;;;4985502;28;20431;-76
2021/04/06 10:48:43;;;;;;;2.20;1.63;;;6.40;99.90;;;;;;4982648;28;20484;-76
2021/04/06 10:51:16;;;;;;;3.83;2.10;;;7.40;99.90;;;;;;4982597;28;20449;-75
2021/04/06 10:53:48;;;;;;;3.80;1.90;;;8.50;99.90;;;;;;4982220;28;20436;-74
2021/04/06 10:56:22;;;;;;;3.60;2.23;;;9.50;99.90;;;;;;4988652;28;20459;-75
2021/04/06 10:59:10;;;;;;;4.20;1.90;;;10.50;99.90;;;;;;4988337;28;20463;-76
2021/04/06 11:01:43;;;;;;;3.87;1.90;;;10.50;99.90;;;;;;4988650;28;20459;-76
2021/04/06 11:04:29;;;;;;;4.43;1.70;;;11.00;99.90;;;;;;4988579;28;20494;-75
2021/04/06 11:07:00;;;;;;;3.90;1.43;;;11.80;99.90;;;;;;4989460;28;20430;-76
2021/04/06 11:09:34;;;;;;;2.03;1.80;;;12.00;99.90;;;;;;4980489;28;20933;-74
2021/04/06 11:12:00;;;;;;;4.10;2.23;;;11.20;99.90;;;;;;4983203;28;20425;-76
2021/04/06 11:14:27;;;;;;;4.40;1.90;;;10.60;99.90;;;;;;4990329;28;20431;-75
2021/04/06 11:16:54;;;;;;;12.23;2.23;;;10.30;99.90;;;;;;4992271;28;20425;-75
2021/04/06 11:19:24;;;;;;;4.97;1.70;;;9.40;99.90;;;;;;5004759;28;20518;-75
2021/04/06 11:21:53;;;;;;;4.90;2.00;;;8.70;99.90;;;;;;4989835;28;20436;-75
2021/04/06 11:24:20;;;;;;;7.67;1.90;;;8.30;99.90;;;;;;4991058;28;20883;-75
2021/04/06 11:26:47;;;;;;;3.37;2.20;;;8.00;99.90;;;;;;4996924;28;20425;-76
2021/04/06 11:29:15;;;;;;;7.43;2.17;;;7.80;99.90;;;;;;4977425;28;20502;-77
2021/04/06 11:31:44;;;;;;;4.70;2.17;;;7.60;99.90;;;;;;4976929;28;20451;-77
2021/04/06 11:34:12;;;;;;;9.77;2.50;;;7.60;99.90;;;;;;4984840;28;20414;-77
2021/04/06 11:36:37;;;;;;;3.27;2.30;;;7.50;99.90;;;;;;4978321;28;20448;-77
2021/04/06 11:39:06;;;;;;;4.20;2.70;;;7.30;99.90;;;;;;4977026;28;20470;-76
2021/04/06 11:41:34;;;;;;;5.77;2.90;;;7.10;99.90;;;;;;4980248;28;20574;-76
2021/04/06 11:43:59;;;;;;;8.17;4.10;;;6.70;99.90;;;;;;4976922;28;20524;-76
2021/04/06 11:46:25;;;;;;;2.20;1.40;;;6.70;99.90;;;;;;4974696;28;20520;-77
2021/04/06 11:48:50;;;;;;;2.33;1.10;;;6.10;99.90;;;;;;4977939;28;20273;-76
2021/04/06 11:51:18;;;;;;;3.33;1.20;;;5.50;99.90;;;;;;4990264;28;20192;-75
2021/04/06 11:53:44;;;;;;;6.20;1.00;;;4.90;99.90;;;;;;4974745;28;20544;-76
2021/04/06 11:56:10;;;;;;;2.00;1.20;;;4.60;99.90;;;;;;4983403;28;20502;-76
2021/04/06 11:58:36;;;;;;;2.50;1.40;;;4.30;99.90;;;;;;4990316;28;20431;-76
2021/04/06 12:01:02;;;;;;;1.90;1.27;;;4.30;99.90;;;;;;4991500;28;20470;-75
2021/04/06 12:03:28;;;;;;;2.67;2.47;;;4.30;99.90;;;;;;4991828;28;20187;-76
2021/04/06 12:05:54;;;;;;;2.70;1.43;;;4.30;99.90;;;;;;4991771;28;20751;-75
2021/04/06 12:08:19;;;;;;;3.87;1.87;;;4.30;99.90;;;;;;4991290;28;20204;-75
2021/04/06 12:10:47;;;;;;;2.47;2.27;;;4.50;99.90;;;;;;4975074;28;20782;-76
2021/04/06 12:13:13;;;;;;;3.87;2.23;;;5.00;99.90;;;;;;4972939;28;20173;-76
2021/04/06 12:15:39;;;;;;;4.20;3.77;;;6.10;99.90;;;;;;4991526;28;20404;-77
2021/04/06 12:18:05;;;;;;;4.80;2.27;;;7.10;99.90;;;;;;4992634;28;20415;-76
2021/04/06 12:20:31;;;;;;;2.57;2.37;;;8.20;99.90;;;;;;4983265;28;20201;-76
2021/04/06 12:22:56;;;;;;;2.03;1.73;;;8.90;99.90;;;;;;4984350;28;20458;-76
2021/04/06 12:25:22;;;;;;;3.27;1.60;;;9.60;99.90;;;;;;4987655;28;20493;-75
2021/04/06 12:27:47;;;;;;;7.03;1.90;;;9.80;99.90;;;;;;4987717;28;20207;-76
2021/04/06 12:30:14;;;;;;;2.00;1.57;;;10.60;99.90;;;;;;4974061;28;20204;-77
2021/04/06 12:32:40;;;;;;;3.63;1.80;;;11.20;99.90;;;;;;4973104;28;20909;-77
2021/04/06 12:35:07;;;;;;;3.27;1.77;;;11.10;99.90;;;;;;4987541;28;20512;-76
2021/04/06 12:37:32;;;;;;;1.77;1.20;;;10.60;99.90;;;;;;4993261;28;20648;-76
2021/04/06 12:39:59;;;;;;;3.47;1.30;;;10.90;99.90;;;;;;5026678;28;20456;-76
2021/04/06 12:42:25;;;;;;;7.57;2.53;;;10.70;99.90;;;;;;4984020;28;20273;-76
2021/04/06 12:44:51;;;;;;;2.80;1.57;;;10.20;99.90;;;;;;4983707;28;20451;-77
2021/04/06 12:47:16;;;;;;;5.27;3.13;;;9.80;99.90;;;;;;4977370;28;20613;-76
2021/04/06 12:49:42;;;;;;;3.87;1.70;;;9.60;99.90;;;;;;4989623;28;20255;-76
2021/04/06 12:52:08;;;;;;;3.37;2.27;;;9.20;99.90;;;;;;4995480;28;20177;-76
2021/04/06 12:54:33;;;;;;;2.13;1.30;;;7.80;99.90;;;;;;4995219;28;20183;-76
2021/04/06 12:56:59;;;;;;;2.23;1.37;;;7.50;99.90;;;;;;4987464;28;20184;-77
2021/04/06 12:59:24;;;;;;;1.93;1.30;;;7.20;99.90;;;;;;5027478;28;20647;-77
2021/04/06 13:01:50;;;;;;;2.60;1.10;;;7.10;99.90;;;;;;4976775;28;20242;-77
2021/04/06 13:04:16;;;;;;;2.90;1.50;;;7.60;99.90;;;;;;5005446;28;20209;-76
2021/04/06 13:06:42;;;;;;;2.40;1.33;;;7.70;99.90;;;;;;4975827;28;20196;-77